ADDS METAR Data INFO
IDs: Format: Raw Decoded Include TAF

Data at: 0922 UTC 17 Oct 2017

KRRT 170914Z AUTO 20005KT 10SM CLR 03/01 A2989 RMK AO2
KRRT 170854Z AUTO 20004KT 10SM CLR 03/01 A2989 RMK AO2
KRRT 170834Z AUTO 00000KT 10SM CLR 03/01 A2989 RMK AO2
KRRT 170814Z AUTO 22003KT 10SM CLR 05/02 A2989 RMK AO2
KRRT 170754Z AUTO 23004KT 10SM CLR 06/03 A2989 RMK AO2
KRRT 170734Z AUTO 23004KT 10SM CLR 07/03 A2989 RMK AO2
KRRT 170714Z AUTO 25005KT 10SM CLR 07/03 A2989 RMK AO2
KRRT 170654Z AUTO 25005KT 10SM CLR 07/03 A2988 RMK AO2
KRRT 170634Z AUTO 26006KT 10SM CLR 07/03 A2988 RMK AO2
KRRT 170614Z AUTO 26006KT 10SM CLR 08/03 A2987 RMK AO2
KRRT 170554Z AUTO 25007KT 10SM CLR 08/03 A2987 RMK AO2
KRRT 170534Z AUTO 26006KT 10SM CLR 09/03 A2986 RMK AO2
KRRT 170514Z AUTO 26007KT 10SM CLR 09/04 A2986 RMK AO2
KRRT 170454Z AUTO 25008KT 10SM CLR 10/04 A2985 RMK AO2
KRRT 170434Z AUTO 25007KT 10SM CLR 11/04 A2985 RMK AO2
KRRT 170414Z AUTO 24007KT 10SM CLR 10/04 A2984 RMK AO2
KRRT 170354Z AUTO 24006KT 10SM CLR 11/04 A2984 RMK AO2
KRRT 170334Z AUTO 24006KT 10SM CLR 11/04 A2984 RMK AO2
KRRT 170314Z AUTO 25007KT 10SM CLR 12/04 A2983 RMK AO2
KRRT 170254Z AUTO 25008KT 10SM CLR 12/04 A2983 RMK AO2
KRRT 170234Z AUTO 24008KT 10SM CLR 12/04 A2982 RMK AO2
KRRT 170214Z AUTO 24006KT 10SM CLR 12/04 A2982 RMK AO2
KRRT 170154Z AUTO 23006KT 10SM CLR 12/04 A2981 RMK AO2
KRRT 170134Z AUTO 23006KT 10SM CLR 12/04 A2980 RMK AO2
KRRT 170114Z AUTO 24006KT 10SM CLR 13/04 A2980 RMK AO2
KRRT 170054Z AUTO 23007KT 10SM CLR 13/05 A2980 RMK AO2
KRRT 170033Z AUTO 23007KT 10SM CLR 13/05 A2980 RMK AO2
KRRT 170014Z AUTO 23007KT 10SM CLR 13/05 A2980 RMK AO2
KRRT 162359Z AUTO 24005KT 10SM CLR 15/04 A2980 RMK AO2
KRRT 162356Z AUTO 24007KT 10SM CLR 15/04 A2980 RMK AO2
KRRT 162337Z AUTO 26008KT 10SM CLR 14/05 A2980 RMK AO2
KRRT 162318Z AUTO 26009KT 10SM CLR 16/05 A2979 RMK AO2
KRRT 162256Z AUTO 25008KT 10SM CLR 17/05 A2979 RMK AO2
KRRT 162237Z AUTO 25007G18KT 10SM CLR 18/05 A2978 RMK AO2
KRRT 162217Z AUTO 26012G20KT 10SM CLR 17/04 A2978 RMK AO2
KRRT 162157Z AUTO 25012G19KT 10SM CLR 18/04 A2977 RMK AO2
KRRT 162136Z AUTO 25011G19KT 10SM CLR 18/04 A2978 RMK AO2
KRRT 162118Z AUTO 24015G21KT 10SM CLR 18/05 A2977 RMK AO2
KRRT 162056Z AUTO 24014G22KT 10SM CLR 18/05 A2978 RMK AO2
KRRT 162036Z AUTO 25016G25KT 10SM CLR 18/04 A2978 RMK AO2
KRRT 162016Z AUTO 23018G25KT 10SM CLR 18/04 A2978 RMK AO2
KRRT 161959Z AUTO 22017G23KT 10SM CLR 17/04 A2977 RMK AO2
KRRT 161936Z AUTO 22019G26KT 10SM CLR 17/04 A2978 RMK AO2
KRRT 161915Z AUTO 22019G26KT 10SM CLR 17/03 A2979 RMK AO2
KRRT 161856Z AUTO 22019G23KT 10SM CLR 17/03 A2981 RMK AO2
KRRT 161838Z AUTO 22018G25KT 10SM CLR 17/03 A2981 RMK AO2
KRRT 161816Z AUTO 21012G23KT 10SM CLR 16/03 A2983 RMK AO2
KRRT 161739Z AUTO 19012G21KT 174V234 10SM CLR 15/03 A2986 RMK AO2
KRRT 161734Z AUTO 19012G17KT 10SM CLR 14/03 A2986 RMK AO2
KRRT 161713Z AUTO 19010G17KT 10SM CLR 13/03 A2988 RMK AO2
KRRT 161654Z AUTO 20009G16KT 10SM CLR 13/03 A2990 RMK AO2
KRRT 161634Z AUTO 19009G16KT 10SM CLR 11/03 A2991 RMK AO2
KRRT 161614Z AUTO 20010G16KT 10SM CLR 11/03 A2993 RMK AO2
KRRT 161554Z AUTO 20008G16KT 164V234 10SM CLR 10/03 A2994 RMK AO2
KRRT 161534Z AUTO 21013G19KT 10SM CLR 09/03 A2994 RMK AO2
KRRT 161514Z AUTO 20009KT 10SM CLR 08/03 A2995 RMK AO2
KRRT 161454Z AUTO 21007KT 10SM CLR 07/02 A2997 RMK AO2
KRRT 161434Z AUTO 21009KT 10SM CLR 06/02 A2997 RMK AO2
KRRT 161414Z AUTO 21007KT 10SM CLR 04/01 A2998 RMK AO2
KRRT 161354Z AUTO 21008KT 10SM CLR 03/00 A2998 RMK AO2
KRRT 161334Z AUTO 20006KT 10SM CLR 02/00 A2999 RMK AO2
KRRT 161314Z AUTO 21004KT 10SM CLR 01/M01 A3001 RMK AO2
KRRT 161254Z AUTO 21006KT 10SM CLR 01/M01 A3001 RMK AO2
KRRT 161234Z AUTO 20006KT 10SM CLR 01/M01 A3001 RMK AO2
KRRT 161214Z AUTO 19005KT 10SM CLR 02/M01 A3002 RMK AO2
KRRT 161154Z AUTO 21006KT 10SM CLR 02/M01 A3003 RMK AO2
KRRT 161134Z AUTO 20005KT 10SM CLR 01/M01 A3004 RMK AO2
KRRT 161114Z AUTO 21005KT 10SM CLR 02/M01 A3005 RMK AO2
KRRT 161054Z AUTO 21006KT 10SM CLR 02/M01 A3005 RMK AO2
KRRT 161034Z AUTO 20004KT 10SM CLR 01/M01 A3005 RMK AO2
KRRT 161014Z AUTO 20003KT 10SM CLR 01/M01 A3005 RMK AO2
KRRT 160954Z AUTO 20005KT 10SM CLR 01/M02 A3006 RMK AO2
KRRT 160934Z AUTO 20005KT 10SM CLR 01/M02 A3006 RMK AO2
KRRT 160914Z AUTO 21005KT 10SM CLR 01/M01 A3006 RMK AO2
KRRT 160854Z AUTO 22006KT 10SM CLR 02/M01 A3007 RMK AO2
KRRT 160834Z AUTO 22005KT 10SM CLR 02/M01 A3007 RMK AO2
KRRT 160814Z AUTO 22006KT 10SM CLR 02/M01 A3007 RMK AO2
KRRT 160754Z AUTO 23007KT 10SM CLR 02/M01 A3008 RMK AO2
KRRT 160734Z AUTO 22006KT 10SM CLR 02/00 A3008 RMK AO2
KRRT 160714Z AUTO 22006KT 10SM CLR 02/00 A3008 RMK AO2
KRRT 160654Z AUTO 23006KT 10SM CLR 02/00 A3009 RMK AO2
KRRT 160634Z AUTO 23006KT 10SM CLR 02/00 A3008 RMK AO2
KRRT 160614Z AUTO 23006KT 10SM CLR 02/00 A3008 RMK AO2
KRRT 160554Z AUTO 23007KT 10SM CLR 02/00 A3008 RMK AO2
KRRT 160534Z AUTO 23006KT 10SM CLR 02/00 A3008 RMK AO2
KRRT 160514Z AUTO 23006KT 10SM CLR 02/00 A3008 RMK AO2
KRRT 160454Z AUTO 23006KT 10SM CLR 03/01 A3008 RMK AO2
KRRT 160434Z AUTO 22005KT 10SM CLR 02/00 A3008 RMK AO2
KRRT 160414Z AUTO 22005KT 10SM CLR 03/01 A3008 RMK AO2
KRRT 160354Z AUTO 23006KT 10SM CLR 03/01 A3008 RMK AO2
KRRT 160335Z AUTO 23006KT 10SM CLR 03/01 A3008 RMK AO2
KRRT 160314Z AUTO 22006KT 10SM CLR 04/01 A3008 RMK AO2
KRRT 160254Z AUTO 24006KT 10SM CLR 05/01 A3008 RMK AO2
KRRT 160233Z AUTO 24006KT 10SM CLR 05/01 A3007 RMK AO2
KRRT 160214Z AUTO 24006KT 10SM CLR 06/01 A3007 RMK AO2
KRRT 160154Z AUTO 25007KT 10SM CLR 06/01 A3008 RMK AO2
KRRT 160133Z AUTO 25007KT 10SM CLR 06/01 A3007 RMK AO2
KRRT 160114Z AUTO 25007KT 10SM CLR 06/01 A3007 RMK AO2
KRRT 160054Z AUTO 24006KT 10SM CLR 06/01 A3007 RMK AO2
KRRT 160033Z AUTO 24004KT 10SM CLR 04/01 A3006 RMK AO2
KRRT 160014Z AUTO 00000KT 10SM CLR 04/01 A3006 RMK AO2
KRRT 152354Z AUTO 00000KT 10SM CLR 06/01 A3006 RMK AO2
KRRT 152335Z AUTO 00000KT 10SM CLR 07/02 A3005 RMK AO2
KRRT 152314Z AUTO 00000KT 10SM CLR 08/02 A3004 RMK AO2
KRRT 152254Z AUTO 00000KT 10SM CLR 09/02 A3004 RMK AO2
KRRT 152235Z AUTO 23005KT 10SM CLR 09/02 A3004 RMK AO2
KRRT 152214Z AUTO 24005KT 10SM CLR 09/02 A3004 RMK AO2
KRRT 152154Z AUTO 24008KT 10SM CLR 10/02 A3004 RMK AO2
KRRT 152134Z AUTO 25007KT 10SM CLR 09/02 A3004 RMK AO2